Terminal Aerodrome Forecast
Issued by NWS

Home | Current Version | Previous Version | Text Only | Print | Product List | Glossary On
Versions: 1 2 3 4 5 6 7 8 9 10 11 12 13 14 15 16
000
FTUS43 KLSX 311137
TAFCPS
TAF
KCPS 311137Z 3112/0112 17005KT P6SM BKN080
     FM311700 18007KT P6SM SCT040 SCT080
     FM010100 16004KT P6SM SCT250=

USA.gov is the U.S. government's official web portal to all federal, state and local government web resources and services.